Time;durP1;ratioP1;P1;durP2;ratioP2;P2;SDS_P1;SDS_P2;PMS_P1;PMS_P2;Temp;Humidity;BMP_temperature;BMP_pressure;BME280_temperature;BME280_humidity;BME280_pressure;Samples;Min_cycle;Max_cycle;Signal;HPM_P1;HPM_P2
2021/10/20 00:07:12;;;;;;;6.3;3.9;;;;;;;11.24207;63.85243;99154;;;;
2021/10/20 00:27:11;;;;;;;6.2;2.4;;;;;;;11.40172;64.08524;99149;;;;
2021/10/20 00:37:09;;;;;;;5.75;2.45;;;;;;;11.4718;63.87671;99138;;;;
2021/10/20 00:47:08;;;;;;;5.5;3.2;;;;;;;11.67199;63.60878;99136;;;;
2021/10/20 00:57:07;;;;;;;7.3;3.1;;;;;;;11.66195;63.3885;99134;;;;
2021/10/20 01:07:09;;;;;;;4;3;;;;;;;11.68226;63.53036;99118;;;;
2021/10/20 01:17:06;;;;;;;5.55;3.2;;;;;;;11.51188;64.64227;99091;;;;
2021/10/20 01:27:05;;;;;;;5.7;2.8;;;;;;;11.57207;63.95117;99069;;;;
2021/10/20 01:37:04;;;;;;;4;2.4;;;;;;;11.64214;63.95208;99071;;;;
2021/10/20 01:47:04;;;;;;;4.7;2.85;;;;;;;11.64214;63.60535;99083;;;;
2021/10/20 01:57:03;;;;;;;4;2.2;;;;;;;11.5818;64.05192;99077;;;;
2021/10/20 02:07:02;;;;;;;3.8;2.7;;;;;;;11.53211;64.47427;99067;;;;
2021/10/20 02:17:01;;;;;;;4.9;3.4;;;;;;;11.65188;63.94875;99052;;;;
2021/10/20 02:27:00;;;;;;;4.5;3.15;;;;;;;11.83168;63.21214;99050;;;;
2021/10/20 02:36:59;;;;;;;6.5;3.4;;;;;;;12.13226;62.40892;99040;;;;
2021/10/20 02:46:58;;;;;;;4.6;2.4;;;;;;;12.35214;62.20489;99034;;;;
2021/10/20 02:56:58;;;;;;;5.9;2.7;;;;;;;12.38176;61.9831;99006;;;;
2021/10/20 03:06:57;;;;;;;6.7;3.8;;;;;;;12.48195;62.08002;99006;;;;
2021/10/20 03:16:56;;;;;;;6.55;3.5;;;;;;;12.67188;61.9939;99004;;;;
2021/10/20 03:26:55;;;;;;;4.2;2.4;;;;;;;12.76222;62.18836;98992;;;;
2021/10/20 03:36:54;;;;;;;5.15;2.8;;;;;;;12.86222;62.71415;98994;;;;
2021/10/20 03:46:54;;;;;;;5.5;2.833333;;;;;;;12.97191;63.69962;98990;;;;
2021/10/20 03:56:53;;;;;;;4.9;2.9;;;;;;;13.03214;63.94355;98990;;;;
2021/10/20 04:06:52;;;;;;;5.6;3.6;;;;;;;13.02184;65.31512;98983;;;;
2021/10/20 04:16:52;;;;;;;5.6;3.35;;;;;;;13.19195;65.81454;98979;;;;
2021/10/20 04:26:55;;;;;;;5.1;3;;;;;;;13.06222;66.08141;98969;;;;
2021/10/20 04:36:51;;;;;;;7.1;3.4;;;;;;;13.30214;66.49535;98955;;;;
2021/10/20 04:46:50;;;;;;;5.3;3.2;;;;;;;13.55218;66.32134;98936;;;;
2021/10/20 04:56:50;;;;;;;4.8;3.1;;;;;;;13.66176;66.34258;98940;;;;
2021/10/20 05:06:49;;;;;;;6.1;3.2;;;;;;;13.69;66.052;98920;;;;
2021/10/20 05:16:48;;;;;;;6.9;4;;;;;;;13.9118;65.85091;98908;;;;
2021/10/20 05:26:53;;;;;;;7.7;4.6;;;;;;;14.04188;66.28297;98906;;;;
2021/10/20 05:36:47;;;;;;;8.049999;4.05;;;;;;;14.28199;66.34833;98887;;;;
2021/10/20 05:46:49;;;;;;;4.2;2.7;;;;;;;14.76188;65.57615;98879;;;;
2021/10/20 05:56:46;;;;;;;6.1;3.1;;;;;;;15.30188;63.68613;98881;;;;
2021/10/20 06:06:46;;;;;;;5.6;3.5;;;;;;;15.59172;62.70534;98889;;;;
2021/10/20 06:25:21;;;;;;;5.4;3.3;;;;;;;16.65;63.71;98895;;;;
2021/10/20 06:35:21;;;;;;;5.8;2.8;;;;;;;16.77188;60.60779;98893;;;;
2021/10/20 06:45:21;;;;;;;10.6;3.2;;;;;;;16.83172;61.05253;98900;;;;
2021/10/20 06:55:21;;;;;;;5;2.7;;;;;;;16.92218;61.87383;98895;;;;
2021/10/20 07:05:21;;;;;;;7.2;2.8;;;;;;;16.78218;61.42858;98881;;;;
2021/10/20 07:15:20;;;;;;;3.8;2.3;;;;;;;16.93195;61.79721;98879;;;;
2021/10/20 07:25:21;;;;;;;4.35;2.4;;;;;;;17.15222;62.14433;98873;;;;
2021/10/20 07:35:20;;;;;;;4.4;2.2;;;;;;;17.61184;60.87626;98875;;;;
2021/10/20 07:45:20;;;;;;;4.833334;2.266667;;;;;;;17.75172;60.00687;98873;;;;
2021/10/20 08:05:21;;;;;;;5.7;2.4;;;;;;;18.34222;58.87617;98855;;;;
2021/10/20 08:15:20;;;;;;;4.9;2.4;;;;;;;18.67188;58.61916;98852;;;;
2021/10/20 08:25:20;;;;;;;4.15;2.15;;;;;;;18.88191;57.49458;98842;;;;
2021/10/20 08:35:20;;;;;;;7;2.433333;;;;;;;19.20188;56.84297;98844;;;;
2021/10/20 08:45:21;;;;;;;6.5;2.3;;;;;;;19.46199;56.1589;98840;;;;
2021/10/20 08:55:21;;;;;;;8.8;2.433333;;;;;;;19.70168;56.38479;98836;;;;
2021/10/20 09:05:21;;;;;;;5.666667;2.1;;;;;;;20.01199;55.93457;98822;;;;
2021/10/20 09:15:23;;;;;;;5.4;2.6;;;;;;;20.05188;55.25696;98814;;;;
2021/10/20 09:25:22;;;;;;;7.2;3;;;;;;;20.10218;55.08328;98814;;;;
2021/10/20 09:35:22;;;;;;;5.5;2.5;;;;;;;20.18192;55.22084;98812;;;;
2021/10/20 09:45:22;;;;;;;6.366667;3;;;;;;;20.21172;55.1754;98793;;;;
2021/10/20 10:05:23;;;;;;;7.55;2.9;;;;;;;20.23172;55.37479;98777;;;;
2021/10/20 10:15:23;;;;;;;6.933333;2.933333;;;;;;;20.2418;56.06685;98761;;;;
2021/10/20 10:25:23;;;;;;;6.066666;2.7;;;;;;;20.29203;55.18751;98736;;;;
2021/10/20 10:35:25;;;;;;;6;3;;;;;;;20.64214;54.68156;98726;;;;
2021/10/20 10:45:24;;;;;;;5.4;3.5;;;;;;;20.62172;53.72215;98706;;;;
2021/10/20 11:05:24;;;;;;;4.1;2.2;;;;;;;21.27176;53.513;98679;;;;
2021/10/20 11:15:24;;;;;;;6.4;3.3;;;;;;;21.6818;51.2782;98653;;;;
2021/10/20 11:25:24;;;;;;;5.5;3;;;;;;;21.5018;49.86482;98638;;;;
2021/10/20 11:35:25;;;;;;;6.3;2.7;;;;;;;21.70176;48.99706;98604;;;;
2021/10/20 11:45:31;;;;;;;8.3;3.2;;;;;;;22.06191;48.29436;98595;;;;
2021/10/20 12:05:30;;;;;;;4;1.9;;;;;;;22.57211;46.90075;98559;;;;
2021/10/20 12:15:27;;;;;;;5.45;2.4;;;;;;;22.77168;46.56374;98559;;;;
2021/10/20 12:25:27;;;;;;;4.8;2.5;;;;;;;22.98184;47.39948;98546;;;;
2021/10/20 12:35:28;;;;;;;4.25;2.25;;;;;;;23.22218;46.41261;98524;;;;
2021/10/20 12:45:28;;;;;;;4;2.2;;;;;;;22.9118;47.34691;98505;;;;
2021/10/20 12:55:29;;;;;;;2.9;1.4;;;;;;;22.66;46.931;98481;;;;
